Time;durP1;ratioP1;P1;durP2;ratioP2;P2;SDS_P1;SDS_P2;PMS_P1;PMS_P2;Temp;Humidity;BMP_temperature;BMP_pressure;BME280_temperature;BME280_humidity;BME280_pressure;Samples;Min_cycle;Max_cycle;Signal;HPM_P1;HPM_P2
2022/07/06 00:01:45;;;;;;;2.45;1.05;;;16.60;99.90;;;;;;12481793;28;20044;-38
2022/07/06 00:07:47;;;;;;;4.65;1.00;;;16.60;99.90;;;;;;12489433;28;20041;-35
2022/07/06 00:13:49;;;;;;;3.55;0.80;;;16.60;99.90;;;;;;12482793;28;20459;-35
2022/07/06 00:19:50;;;;;;;2.85;0.80;;;16.40;99.90;;;;;;12488867;28;20137;-38
2022/07/06 00:25:52;;;;;;;3.78;1.10;;;16.50;99.90;;;;;;12478234;28;20075;-38
2022/07/06 00:31:54;;;;;;;2.15;0.68;;;16.50;99.90;;;;;;12495072;28;20046;-39
2022/07/06 00:37:56;;;;;;;6.68;1.25;;;16.40;99.90;;;;;;12492875;28;20071;-34
2022/07/06 00:43:57;;;;;;;2.25;1.05;;;16.30;99.90;;;;;;12488974;28;20037;-39
2022/07/06 00:50:15;;;;;;;4.22;1.48;;;16.20;99.90;;;;;;12479847;28;20120;-35
2022/07/06 00:56:17;;;;;;;5.10;1.10;;;16.10;99.90;;;;;;12491000;28;20058;-38
2022/07/06 01:02:20;;;;;;;4.43;1.30;;;16.10;99.90;;;;;;12484294;28;20106;-38
2022/07/06 01:08:23;;;;;;;3.03;0.97;;;16.00;99.90;;;;;;12488203;28;20550;-38
2022/07/06 01:14:26;;;;;;;3.50;1.10;;;15.90;99.90;;;;;;12485353;28;20142;-35
2022/07/06 01:20:29;;;;;;;1.58;0.80;;;15.80;99.90;;;;;;12477802;28;20479;-34
2022/07/06 01:26:31;;;;;;;3.10;1.23;;;15.80;99.90;;;;;;12484805;28;20041;-38
2022/07/06 01:32:34;;;;;;;3.70;1.45;;;15.80;99.90;;;;;;12477822;28;20102;-38
2022/07/06 01:38:53;;;;;;;6.07;1.10;;;15.70;99.90;;;;;;12467399;28;20071;-35
2022/07/06 01:44:55;;;;;;;2.53;0.95;;;15.60;99.90;;;;;;12484724;28;20417;-35
2022/07/06 01:50:59;;;;;;;6.13;1.17;;;15.60;99.90;;;;;;12477055;28;20053;-37
2022/07/06 01:57:01;;;;;;;3.80;1.25;;;15.50;99.90;;;;;;12481312;28;20049;-37
2022/07/06 02:03:02;;;;;;;3.60;1.20;;;15.60;99.90;;;;;;12479401;28;20083;-38
2022/07/06 02:09:04;;;;;;;7.97;1.92;;;15.40;99.90;;;;;;12478267;28;20076;-35
2022/07/06 02:15:07;;;;;;;5.68;1.52;;;15.30;99.90;;;;;;12468612;28;20085;-35
2022/07/06 02:21:08;;;;;;;2.35;1.02;;;15.30;99.90;;;;;;12486319;28;20046;-38
2022/07/06 02:27:10;;;;;;;7.50;1.23;;;15.30;99.90;;;;;;12474180;28;20042;-38
2022/07/06 02:33:12;;;;;;;4.55;1.17;;;15.30;99.90;;;;;;12492712;28;20090;-34
2022/07/06 02:39:14;;;;;;;3.80;1.10;;;15.30;99.90;;;;;;12472083;28;20148;-35
2022/07/06 02:45:16;;;;;;;5.55;1.23;;;15.30;99.90;;;;;;12470074;28;20046;-35
2022/07/06 02:51:18;;;;;;;6.60;1.35;;;15.20;99.90;;;;;;12478064;28;20164;-39
2022/07/06 02:57:19;;;;;;;5.20;1.40;;;15.20;99.90;;;;;;12478567;28;20045;-39
2022/07/06 03:03:21;;;;;;;4.20;1.50;;;15.10;99.90;;;;;;12474518;28;20045;-38
2022/07/06 03:09:23;;;;;;;2.83;1.20;;;15.10;99.90;;;;;;12470282;28;20531;-35
2022/07/06 03:15:25;;;;;;;3.40;1.20;;;15.00;99.90;;;;;;12477041;28;20089;-35
2022/07/06 03:21:27;;;;;;;3.65;1.30;;;14.90;99.90;;;;;;12474174;28;20553;-35
2022/07/06 03:27:29;;;;;;;4.63;1.83;;;14.70;99.90;;;;;;12468800;28;20517;-38
2022/07/06 03:33:30;;;;;;;4.60;1.50;;;14.70;99.90;;;;;;12477447;28;20132;-35
2022/07/06 03:39:32;;;;;;;6.63;1.52;;;14.80;99.90;;;;;;12478953;28;20049;-38
2022/07/06 03:45:34;;;;;;;4.13;1.40;;;14.80;99.90;;;;;;12482674;28;20806;-38
2022/07/06 03:51:36;;;;;;;5.70;1.98;;;14.80;99.90;;;;;;12466816;28;20057;-39
2022/07/06 03:57:40;;;;;;;7.70;1.52;;;14.60;99.90;;;;;;12478762;28;20128;-38
2022/07/06 04:03:42;;;;;;;4.15;1.50;;;14.50;99.90;;;;;;12470962;28;20042;-38
2022/07/06 04:09:43;;;;;;;3.08;1.40;;;14.40;99.90;;;;;;12478448;28;20402;-38
2022/07/06 04:15:45;;;;;;;6.38;1.63;;;14.40;99.90;;;;;;12477744;28;20103;-39
2022/07/06 04:21:47;;;;;;;6.20;1.80;;;14.40;99.90;;;;;;12487006;28;20053;-35
2022/07/06 04:27:49;;;;;;;8.50;1.70;;;14.50;99.90;;;;;;12485178;28;20054;-35
2022/07/06 04:33:50;;;;;;;5.32;1.65;;;14.60;99.90;;;;;;12485789;28;20046;-38
2022/07/06 04:39:52;;;;;;;4.50;1.90;;;14.60;99.90;;;;;;12462927;28;20053;-35
2022/07/06 04:45:54;;;;;;;8.10;1.63;;;14.50;99.90;;;;;;12476713;28;20409;-38
2022/07/06 04:51:56;;;;;;;4.40;1.73;;;14.50;99.90;;;;;;12459128;28;20053;-39
2022/07/06 04:57:58;;;;;;;7.03;1.42;;;14.40;99.90;;;;;;12472379;28;20061;-36
2022/07/06 05:04:00;;;;;;;6.93;1.70;;;14.20;99.90;;;;;;12473698;28;20090;-38
2022/07/06 05:10:02;;;;;;;5.82;2.00;;;14.30;99.90;;;;;;12476500;28;20103;-39
2022/07/06 05:16:04;;;;;;;8.88;1.45;;;14.50;99.90;;;;;;12472206;28;20263;-35
2022/07/06 05:22:06;;;;;;;4.60;1.40;;;14.40;99.90;;;;;;12475582;28;20076;-37
2022/07/06 05:28:08;;;;;;;3.10;1.50;;;14.40;99.90;;;;;;12486303;28;20050;-39
2022/07/06 05:34:10;;;;;;;4.45;1.50;;;14.60;99.90;;;;;;12484643;28;20096;-39
2022/07/06 05:40:12;;;;;;;5.28;1.80;;;14.70;99.90;;;;;;12476484;28;20096;-35
2022/07/06 05:46:13;;;;;;;9.02;1.63;;;14.70;99.90;;;;;;12474948;28;20049;-38
2022/07/06 05:52:15;;;;;;;6.90;1.40;;;14.80;99.90;;;;;;12470973;28;20049;-35
2022/07/06 05:58:17;;;;;;;9.70;2.15;;;14.70;99.90;;;;;;12472968;28;20053;-35
2022/07/06 06:04:19;;;;;;;6.15;1.40;;;14.60;99.90;;;;;;12484853;28;20076;-38
2022/07/06 06:10:24;;;;;;;7.57;1.42;;;14.70;99.90;;;;;;12486892;28;20094;-38
2022/07/06 06:16:26;;;;;;;3.45;1.38;;;14.80;99.90;;;;;;12472113;28;20053;-38
2022/07/06 06:22:28;;;;;;;6.40;1.50;;;15.00;99.90;;;;;;12477715;28;20046;-38
2022/07/06 06:28:30;;;;;;;4.05;1.30;;;14.90;99.90;;;;;;12469280;28;20061;-39
2022/07/06 06:34:32;;;;;;;4.57;1.20;;;14.80;99.90;;;;;;12488918;28;20448;-38
2022/07/06 06:40:35;;;;;;;2.85;0.90;;;14.80;99.90;;;;;;12475208;28;20118;-38
2022/07/06 06:46:38;;;;;;;6.28;1.27;;;14.90;99.90;;;;;;12476671;28;20092;-35
2022/07/06 06:52:39;;;;;;;3.42;1.00;;;15.20;99.90;;;;;;12464256;28;20064;-35
2022/07/06 06:58:42;;;;;;;3.63;0.95;;;15.10;99.90;;;;;;12469654;28;20081;-38
2022/07/06 07:05:05;;;;;;;5.03;1.00;;;15.20;99.90;;;;;;12465807;28;20041;-38
2022/07/06 07:11:06;;;;;;;4.95;1.08;;;15.30;99.90;;;;;;12477199;28;20045;-35
2022/07/06 07:17:09;;;;;;;7.90;1.05;;;15.20;99.90;;;;;;12472923;28;20058;-35
2022/07/06 07:23:11;;;;;;;3.50;1.02;;;15.30;99.90;;;;;;12471973;28;20057;-35
2022/07/06 07:29:12;;;;;;;3.30;1.00;;;15.30;99.90;;;;;;12460723;28;20129;-38
2022/07/06 07:35:14;;;;;;;7.43;1.38;;;15.30;99.90;;;;;;12480867;28;20144;-35
2022/07/06 07:41:16;;;;;;;6.57;1.40;;;15.50;99.90;;;;;;12479935;28;20175;-35
2022/07/06 07:47:18;;;;;;;6.43;1.23;;;15.60;99.90;;;;;;12477627;28;20425;-35
2022/07/06 07:53:20;;;;;;;3.53;1.17;;;15.70;99.90;;;;;;12487659;28;20178;-38
2022/07/06 07:59:22;;;;;;;4.82;1.00;;;15.90;99.90;;;;;;12487316;28;20064;-35
2022/07/06 08:05:24;;;;;;;4.75;0.85;;;15.90;99.90;;;;;;12483225;28;20129;-35
2022/07/06 08:11:25;;;;;;;3.85;0.70;;;15.80;99.90;;;;;;12485951;28;20041;-35
2022/07/06 08:17:27;;;;;;;3.85;0.77;;;15.90;99.90;;;;;;12493580;28;20045;-35
2022/07/06 08:23:29;;;;;;;3.72;0.85;;;16.00;99.90;;;;;;12487502;28;20090;-39
2022/07/06 08:29:31;;;;;;;1.58;0.50;;;16.00;99.90;;;;;;12483501;28;20120;-38
2022/07/06 08:35:33;;;;;;;3.92;0.70;;;16.10;99.90;;;;;;12484957;28;20104;-38
2022/07/06 08:41:38;;;;;;;1.27;0.50;;;16.20;99.90;;;;;;12480128;28;20060;-39
2022/07/06 08:47:41;;;;;;;7.60;0.63;;;16.20;99.90;;;;;;12482349;28;20050;-38
2022/07/06 08:53:45;;;;;;;3.90;0.80;;;16.30;99.90;;;;;;12463933;28;20080;-36
2022/07/06 08:59:47;;;;;;;3.75;0.82;;;16.30;99.90;;;;;;12489815;28;20053;-35
2022/07/06 09:05:50;;;;;;;1.90;0.50;;;16.30;99.90;;;;;;12479330;28;20092;-35
2022/07/06 09:11:57;;;;;;;2.28;0.60;;;16.20;99.90;;;;;;12477220;28;20096;-35
2022/07/06 09:18:04;;;;;;;3.22;0.52;;;16.00;99.90;;;;;;12477165;28;20548;-36
2022/07/06 09:24:09;;;;;;;3.03;0.68;;;16.00;99.90;;;;;;12478798;28;20091;-39
2022/07/06 09:30:12;;;;;;;6.57;0.80;;;16.10;99.90;;;;;;12479420;28;20124;-35
2022/07/06 09:36:14;;;;;;;5.10;0.73;;;16.40;99.90;;;;;;12483212;28;20132;-35
2022/07/06 09:42:15;;;;;;;2.88;0.80;;;17.00;99.90;;;;;;12473356;28;20095;-39
2022/07/06 09:48:21;;;;;;;5.53;0.77;;;17.10;99.90;;;;;;12462175;28;20046;-35
2022/07/06 09:54:24;;;;;;;4.43;0.82;;;16.70;99.90;;;;;;12475695;28;20405;-39
2022/07/06 10:00:26;;;;;;;5.43;0.73;;;16.50;99.90;;;;;;12467924;28;20049;-36
2022/07/06 10:06:28;;;;;;;2.17;0.60;;;16.40;99.90;;;;;;12481099;28;20608;-36
2022/07/06 10:12:30;;;;;;;4.88;0.75;;;16.20;99.90;;;;;;12474378;28;20102;-36
2022/07/06 10:18:32;;;;;;;4.25;1.00;;;16.20;99.90;;;;;;12480371;28;20057;-39
2022/07/06 10:24:40;;;;;;;2.42;0.55;;;16.20;99.90;;;;;;12486351;28;20486;-39
2022/07/06 10:30:43;;;;;;;4.03;1.42;;;16.30;99.90;;;;;;12478158;28;20049;-41
2022/07/06 10:36:50;;;;;;;11.40;0.90;;;16.40;99.90;;;;;;12482008;28;20128;-39
2022/07/06 10:43:03;;;;;;;7.40;0.95;;;16.50;99.90;;;;;;12451916;28;20115;-40
2022/07/06 10:49:16;;;;;;;3.35;0.73;;;16.70;99.90;;;;;;12474379;28;20103;-36
2022/07/06 10:55:39;;;;;;;4.88;0.80;;;17.20;99.90;;;;;;12470347;28;20480;-40
2022/07/06 11:02:17;;;;;;;6.47;0.82;;;17.70;99.90;;;;;;12480039;28;20183;-38
2022/07/06 11:08:20;;;;;;;2.42;0.93;;;17.70;99.90;;;;;;12474355;28;20635;-39
2022/07/06 11:14:23;;;;;;;3.47;0.63;;;17.50;99.90;;;;;;12470548;28;20042;-40
2022/07/06 11:20:24;;;;;;;5.90;0.90;;;17.40;99.90;;;;;;12475133;28;20523;-36
2022/07/06 11:26:27;;;;;;;6.45;0.70;;;17.30;99.90;;;;;;12484134;28;20046;-40
2022/07/06 11:32:29;;;;;;;1.60;0.65;;;17.30;99.90;;;;;;12486745;28;20083;-39
2022/07/06 11:38:30;;;;;;;5.78;0.80;;;17.20;99.90;;;;;;12486170;28;20072;-36
2022/07/06 11:44:34;;;;;;;2.63;0.57;;;17.30;99.90;;;;;;12478694;28;20180;-35
2022/07/06 11:50:35;;;;;;;2.73;0.60;;;17.40;99.90;;;;;;12485914;28;22961;-36
2022/07/06 11:56:44;;;;;;;2.63;0.65;;;17.50;99.90;;;;;;12481122;28;20546;-41
2022/07/06 12:03:00;;;;;;;2.40;0.60;;;17.50;99.90;;;;;;12486108;28;20049;-36
2022/07/06 12:09:04;;;;;;;3.38;0.57;;;17.60;99.90;;;;;;12467021;28;20057;-35
2022/07/06 12:15:06;;;;;;;;;;;17.50;99.90;;;;;;12473553;28;20111;-39
2022/07/06 12:21:17;;;;;;;3.78;0.70;;;17.50;99.90;;;;;;12469285;28;19921;-35
2022/07/06 12:27:20;;;;;;;2.90;1.25;;;18.00;99.90;;;;;;12482781;28;20451;-39
2022/07/06 12:33:23;;;;;;;4.53;0.65;;;18.60;99.90;;;;;;12482977;28;20132;-36
2022/07/06 12:39:28;;;;;;;2.67;0.60;;;18.60;99.90;;;;;;12481611;28;20575;-39
2022/07/06 12:45:30;;;;;;;3.30;0.70;;;18.60;99.90;;;;;;12490567;28;20083;-35
2022/07/06 12:51:58;;;;;;;4.13;1.50;;;18.30;99.90;;;;;;12483262;28;20045;-36
2022/07/06 12:58:00;;;;;;;2.70;0.57;;;18.60;99.90;;;;;;12486551;28;20433;-35
2022/07/06 13:04:07;;;;;;;3.15;0.60;;;19.10;99.90;;;;;;12484225;28;20489;-36
2022/07/06 13:10:11;;;;;;;3.88;0.55;;;19.50;99.90;;;;;;12478588;28;20057;-35
2022/07/06 13:16:13;;;;;;;3.53;0.75;;;19.70;99.90;;;;;;12476116;28;20057;-39
2022/07/06 13:22:15;;;;;;;2.95;0.60;;;19.60;99.90;;;;;;12477052;28;20053;-39
2022/07/06 13:28:16;;;;;;;6.35;0.50;;;19.10;99.90;;;;;;12477240;28;20047;-39
2022/07/06 13:34:18;;;;;;;1.67;0.47;;;18.70;99.90;;;;;;12478410;28;20562;-35
2022/07/06 13:40:20;;;;;;;2.38;0.38;;;18.40;99.90;;;;;;12468881;28;20195;-36
2022/07/06 13:46:22;;;;;;;4.95;0.50;;;18.50;99.90;;;;;;12460530;28;20142;-35
2022/07/06 13:52:24;;;;;;;2.33;0.60;;;19.10;99.90;;;;;;12471877;28;20148;-35
2022/07/06 13:58:25;;;;;;;1.20;0.40;;;19.70;99.90;;;;;;12458233;28;20098;-39
2022/07/06 14:04:27;;;;;;;2.92;0.40;;;20.00;99.90;;;;;;12473817;28;20382;-39
2022/07/06 14:10:29;;;;;;;1.70;0.50;;;20.20;99.90;;;;;;12475214;28;20042;-39
2022/07/06 14:16:31;;;;;;;1.70;0.50;;;19.90;99.90;;;;;;12467832;28;20093;-39
2022/07/06 14:22:32;;;;;;;3.50;0.50;;;19.80;99.90;;;;;;12480166;28;20184;-35
2022/07/06 14:28:35;;;;;;;3.20;0.50;;;19.50;99.90;;;;;;12471863;28;20091;-35
2022/07/06 14:34:37;;;;;;;3.30;0.50;;;19.40;99.90;;;;;;12463161;28;20468;-36
2022/07/06 14:40:39;;;;;;;4.35;0.70;;;19.80;99.90;;;;;;12471117;28;20140;-35
2022/07/06 14:46:40;;;;;;;1.20;0.40;;;20.20;99.90;;;;;;12461587;28;20050;-35
2022/07/06 14:52:42;;;;;;;2.53;0.28;;;19.90;99.90;;;;;;12471523;28;20041;-39
2022/07/06 14:58:44;;;;;;;1.67;0.35;;;19.70;99.90;;;;;;12486702;28;20227;-39
2022/07/06 15:05:06;;;;;;;1.33;0.40;;;19.40;99.90;;;;;;12479135;28;20528;-39
2022/07/06 15:11:08;;;;;;;2.00;0.35;;;19.10;99.90;;;;;;12478555;28;20133;-36
2022/07/06 15:17:10;;;;;;;3.25;0.60;;;19.00;99.90;;;;;;12479015;28;20110;-39
2022/07/06 15:23:12;;;;;;;3.63;0.60;;;19.00;99.90;;;;;;12470711;28;20053;-38
2022/07/06 15:29:13;;;;;;;3.65;0.40;;;19.10;99.90;;;;;;12465587;28;20514;-35
2022/07/06 15:35:15;;;;;;;0.98;0.38;;;19.10;99.90;;;;;;12481414;28;20114;-38
2022/07/06 15:41:18;;;;;;;3.97;0.85;;;19.00;99.90;;;;;;12479054;28;20239;-39
2022/07/06 15:47:22;;;;;;;4.43;0.70;;;19.00;99.90;;;;;;12460702;28;20088;-35
2022/07/06 15:53:24;;;;;;;11.00;0.70;;;19.20;99.90;;;;;;12476776;28;20060;-36
2022/07/06 15:59:26;;;;;;;2.63;0.40;;;19.20;99.90;;;;;;12465990;28;20128;-36
2022/07/06 16:05:28;;;;;;;2.78;0.57;;;19.30;99.90;;;;;;12482629;28;20599;-39
2022/07/06 16:11:50;;;;;;;1.98;0.40;;;19.10;99.90;;;;;;12476285;28;20421;-35
2022/07/06 16:17:52;;;;;;;6.80;0.45;;;18.90;99.90;;;;;;12479979;28;20123;-35
2022/07/06 16:23:54;;;;;;;3.88;0.70;;;18.90;99.90;;;;;;12472730;28;20044;-38
2022/07/06 16:29:56;;;;;;;6.15;0.85;;;18.80;99.90;;;;;;12477425;28;20049;-40
2022/07/06 16:35:58;;;;;;;1.38;0.40;;;18.80;99.90;;;;;;12482544;28;20464;-35
2022/07/06 16:42:02;;;;;;;3.17;0.50;;;18.80;99.90;;;;;;12480144;28;20444;-35
2022/07/06 16:48:05;;;;;;;5.03;0.60;;;18.80;99.90;;;;;;12481030;28;20478;-38
2022/07/06 16:54:07;;;;;;;3.60;0.50;;;18.70;99.90;;;;;;12483649;28;20046;-35
2022/07/06 17:00:10;;;;;;;3.60;0.50;;;18.70;99.90;;;;;;12484158;28;20050;-38
2022/07/06 17:06:12;;;;;;;1.13;0.32;;;18.60;99.90;;;;;;12481445;28;20041;-35
2022/07/06 17:12:14;;;;;;;1.55;0.45;;;18.60;99.90;;;;;;12476679;28;20050;-35
2022/07/06 17:18:16;;;;;;;2.33;0.50;;;18.50;99.90;;;;;;12475817;28;20115;-35
2022/07/06 17:24:18;;;;;;;4.85;0.65;;;18.50;99.90;;;;;;12472776;28;20042;-35
2022/07/06 17:30:20;;;;;;;3.72;0.57;;;18.50;99.90;;;;;;12477122;28;20135;-40
2022/07/06 17:36:22;;;;;;;4.03;0.43;;;18.40;99.90;;;;;;12480584;28;20136;-37
2022/07/06 17:42:25;;;;;;;4.70;1.00;;;18.40;99.90;;;;;;12478220;28;20057;-39
2022/07/06 17:48:27;;;;;;;6.10;0.70;;;18.40;99.90;;;;;;12480588;28;20049;-35
2022/07/06 17:54:28;;;;;;;3.58;0.70;;;18.30;99.90;;;;;;12467120;28;20107;-38
2022/07/06 18:00:31;;;;;;;1.40;0.40;;;18.20;99.90;;;;;;12483060;28;20049;-36
2022/07/06 18:06:33;;;;;;;1.67;0.52;;;18.30;99.90;;;;;;12486987;28;20049;-35
2022/07/06 18:12:35;;;;;;;5.43;0.50;;;18.30;99.90;;;;;;12478328;28;20045;-36
2022/07/06 18:18:36;;;;;;;3.13;0.50;;;18.20;99.90;;;;;;12456155;28;20117;-36
2022/07/06 18:24:38;;;;;;;3.25;0.47;;;18.30;99.90;;;;;;12484597;28;20037;-35
2022/07/06 18:30:40;;;;;;;2.75;0.52;;;18.30;99.90;;;;;;12480793;28;20041;-40
2022/07/06 18:36:42;;;;;;;1.73;0.63;;;18.20;99.90;;;;;;12484447;28;20057;-35
2022/07/06 18:42:44;;;;;;;5.38;0.50;;;18.20;99.90;;;;;;12472782;28;20456;-38
2022/07/06 18:48:46;;;;;;;8.90;0.70;;;18.20;99.90;;;;;;12474734;28;20535;-38
2022/07/06 18:54:47;;;;;;;3.67;0.60;;;18.20;99.90;;;;;;12480092;28;20102;-35
2022/07/06 19:00:49;;;;;;;4.07;0.65;;;18.10;99.90;;;;;;12479763;28;20049;-38
2022/07/06 19:06:51;;;;;;;3.97;0.60;;;18.00;99.90;;;;;;12482354;28;20050;-35
2022/07/06 19:12:53;;;;;;;4.20;0.88;;;17.90;99.90;;;;;;12473093;28;20100;-39
2022/07/06 19:18:55;;;;;;;5.32;0.70;;;17.90;99.90;;;;;;12471909;28;20797;-39
2022/07/06 19:24:57;;;;;;;7.85;1.15;;;17.90;99.90;;;;;;12469017;28;20042;-39
2022/07/06 19:30:59;;;;;;;2.78;0.43;;;17.80;99.90;;;;;;12470244;28;20096;-39
2022/07/06 19:37:00;;;;;;;3.00;0.60;;;17.90;99.90;;;;;;12474419;28;20090;-35
2022/07/06 19:43:02;;;;;;;7.68;0.70;;;17.80;99.90;;;;;;12472087;28;20042;-36
2022/07/06 19:49:04;;;;;;;3.70;0.70;;;17.90;99.90;;;;;;12482360;28;20049;-36
2022/07/06 19:55:06;;;;;;;3.08;0.70;;;18.00;99.90;;;;;;12477014;28;20049;-39
2022/07/06 20:01:08;;;;;;;4.75;0.50;;;17.90;99.90;;;;;;12480674;28;20115;-38
2022/07/06 20:07:10;;;;;;;3.90;0.47;;;17.70;99.90;;;;;;12473801;28;20050;-35
2022/07/06 20:13:12;;;;;;;7.47;0.80;;;17.50;99.90;;;;;;12479335;28;20112;-38
2022/07/06 20:19:18;;;;;;;5.88;0.90;;;17.50;99.90;;;;;;12477614;28;20057;-35
2022/07/06 20:25:20;;;;;;;7.22;1.02;;;17.40;99.90;;;;;;12475574;28;20053;-35
2022/07/06 20:31:21;;;;;;;2.35;0.50;;;17.40;99.90;;;;;;12483891;28;20568;-35
2022/07/06 20:37:24;;;;;;;3.78;0.80;;;17.30;99.90;;;;;;12491264;28;20053;-39
2022/07/06 20:43:26;;;;;;;4.18;0.60;;;17.20;99.90;;;;;;12482449;28;20050;-36
2022/07/06 20:49:27;;;;;;;2.08;0.63;;;17.20;99.90;;;;;;12481231;28;20042;-40
2022/07/06 20:55:29;;;;;;;2.45;0.68;;;17.20;99.90;;;;;;12465475;28;20180;-35
2022/07/06 21:01:32;;;;;;;3.53;0.85;;;17.00;99.90;;;;;;12465014;28;20103;-35
2022/07/06 21:07:34;;;;;;;5.80;0.83;;;16.80;99.90;;;;;;12476397;28;20046;-35
2022/07/06 21:13:36;;;;;;;4.65;0.98;;;16.80;99.90;;;;;;12476246;28;20875;-39
2022/07/06 21:19:38;;;;;;;3.10;0.68;;;16.80;99.90;;;;;;12473284;28;20049;-35
2022/07/06 21:25:40;;;;;;;3.38;1.00;;;16.80;99.90;;;;;;12473650;28;20826;-38
2022/07/06 21:31:42;;;;;;;4.32;0.88;;;17.10;99.90;;;;;;12477568;28;20464;-38
2022/07/06 21:37:43;;;;;;;3.45;0.70;;;17.10;99.90;;;;;;12479993;28;20098;-38
2022/07/06 21:43:45;;;;;;;2.42;1.00;;;17.10;99.90;;;;;;12486359;28;20045;-38
2022/07/06 21:49:47;;;;;;;2.60;0.70;;;17.10;99.90;;;;;;12476218;28;20133;-35
2022/07/06 21:55:51;;;;;;;4.38;0.90;;;16.90;99.90;;;;;;12462607;28;20186;-38
2022/07/06 22:01:53;;;;;;;2.50;0.90;;;17.00;99.90;;;;;;12472282;28;20049;-37
2022/07/06 22:07:54;;;;;;;3.45;1.00;;;17.10;99.90;;;;;;12485193;28;20041;-35
2022/07/06 22:13:56;;;;;;;2.22;0.98;;;17.00;99.90;;;;;;12473526;28;20091;-35
2022/07/06 22:19:58;;;;;;;2.83;1.30;;;16.80;99.90;;;;;;12467193;28;20555;-38
2022/07/06 22:26:00;;;;;;;5.70;1.27;;;16.70;99.90;;;;;;12467558;28;20049;-35
2022/07/06 22:32:02;;;;;;;4.93;1.75;;;16.70;99.90;;;;;;12482435;28;20050;-35
2022/07/06 22:38:05;;;;;;;5.10;1.40;;;16.60;99.90;;;;;;12478243;28;20057;-35
2022/07/06 22:44:07;;;;;;;2.25;1.33;;;16.80;99.90;;;;;;12476328;28;20140;-35
2022/07/06 22:50:09;;;;;;;3.47;1.10;;;17.00;99.90;;;;;;12475694;28;20048;-38
2022/07/06 22:56:11;;;;;;;3.83;1.00;;;17.10;99.90;;;;;;12476110;28;20045;-38
2022/07/06 23:02:13;;;;;;;5.38;1.23;;;17.00;99.90;;;;;;12473882;28;20103;-35
2022/07/06 23:08:15;;;;;;;5.85;1.90;;;17.00;99.90;;;;;;12482054;28;20052;-35
2022/07/06 23:14:18;;;;;;;7.15;1.48;;;16.60;99.90;;;;;;12480697;28;20451;-35
2022/07/06 23:20:20;;;;;;;4.68;1.92;;;16.40;99.90;;;;;;12476965;28;20140;-38
2022/07/06 23:26:22;;;;;;;4.65;1.92;;;16.40;99.90;;;;;;12473227;28;20621;-35
2022/07/06 23:32:23;;;;;;;7.57;2.10;;;16.40;99.90;;;;;;12484266;28;20050;-35
2022/07/06 23:38:25;;;;;;;6.03;2.50;;;16.50;99.90;;;;;;12485574;28;20176;-39
2022/07/06 23:44:27;;;;;;;4.30;2.03;;;16.40;99.90;;;;;;12485593;28;20071;-35
2022/07/06 23:50:29;;;;;;;10.70;2.00;;;16.20;99.90;;;;;;12477955;28;20176;-35
2022/07/06 23:56:31;;;;;;;5.70;2.70;;;16.10;99.90;;;;;;12478584;28;20049;-35
